createdAt,value
2023-07-02T00:02:12.597Z,97498.13
2023-07-02T00:05:14.847Z,97486.41
2023-07-02T00:08:16.760Z,97483.13
2023-07-02T00:11:19.190Z,97491.31
2023-07-02T00:14:22.900Z,97487.63
2023-07-02T00:17:25.087Z,97483.97
2023-07-02T00:20:27.050Z,97480.31
2023-07-02T00:23:31.792Z,97475.53
2023-07-02T00:26:33.902Z,97482.72
2023-07-02T00:29:37.057Z,97482.72
2023-07-02T00:32:39.350Z,97479.19
2023-07-02T00:35:41.231Z,97489.94
2023-07-02T00:38:45.596Z,97485.41
2023-07-02T00:41:47.683Z,97488.09
2023-07-02T00:44:53.639Z,97484.81
2023-07-02T00:47:56.432Z,97488.38
2023-07-02T00:50:58.822Z,97491.91
2023-07-02T00:54:00.858Z,97479.47
2023-07-02T00:57:04.699Z,97481.28
2023-07-02T01:00:09.871Z,97478.59
2023-07-02T01:03:12.904Z,97463.09
2023-07-02T01:06:16.854Z,97459.09
2023-07-02T01:09:19.126Z,97463.09
2023-07-02T01:12:22.563Z,97466.91
2023-07-02T01:15:26.947Z,97459.09
2023-07-02T01:18:31.172Z,97458.38
2023-07-02T01:21:35.577Z,97464.59
2023-07-02T01:24:38.014Z,97455.75
2023-07-02T01:27:40.130Z,97461.13
2023-07-02T01:30:42.721Z,97459.56
2023-07-02T01:33:45.315Z,97458.00
2023-07-02T01:36:48.518Z,97451.75
2023-07-02T01:39:50.704Z,97461.66
2023-07-02T01:42:52.555Z,97459.09
2023-07-02T01:45:57.270Z,97464.22
2023-07-02T01:49:01.729Z,97462.25
2023-07-02T01:52:06.242Z,97458.59
2023-07-02T01:55:09.363Z,97468.28
2023-07-02T01:58:11.298Z,97476.38
2023-07-02T02:01:13.079Z,97480.06
2023-07-02T02:04:15.339Z,97479.06
2023-07-02T02:07:18.633Z,97473.72
2023-07-02T02:10:20.822Z,97486.09
2023-07-02T02:13:23.107Z,97480.72
2023-07-02T02:16:25.569Z,97477.50
2023-07-02T02:19:27.537Z,97476.53
2023-07-02T02:22:30.772Z,97484.47
2023-07-02T02:25:32.665Z,97480.91
2023-07-02T02:28:37.359Z,97475.69
2023-07-02T02:31:39.798Z,97484.22
2023-07-02T02:34:42.144Z,97474.69
2023-07-02T02:37:45.644Z,97482.53
2023-07-02T02:40:48.561Z,97479.97
2023-07-02T02:43:53.935Z,97471.78
2023-07-02T02:46:56.920Z,97476.31
2023-07-02T02:49:58.981Z,97471.78
2023-07-02T02:53:02.217Z,97477.03
2023-07-02T02:56:05.026Z,97468.34
2023-07-02T02:59:06.961Z,97475.19
2023-07-02T03:02:08.956Z,97476.63
2023-07-02T03:05:10.851Z,97476.41
2023-07-02T03:08:14.328Z,97462.97
2023-07-02T03:11:16.147Z,97465.75
2023-07-02T03:14:18.882Z,97471.88
2023-07-02T03:17:21.833Z,97457.84
2023-07-02T03:20:23.860Z,97473.72
2023-07-02T03:23:27.322Z,97484.34
2023-07-02T03:26:29.281Z,97486.41
2023-07-02T03:29:31.100Z,97469.19
2023-07-02T03:32:33.038Z,97469.06
2023-07-02T03:35:35.202Z,97469.66
2023-07-02T03:38:38.430Z,97461.75
2023-07-02T03:41:40.369Z,97464.56
2023-07-02T03:44:42.233Z,97461.75
2023-07-02T03:47:44.407Z,97470.50
2023-07-02T03:50:46.697Z,97472.81
2023-07-02T03:53:50.361Z,97471.09
2023-07-02T03:56:52.390Z,97472.81
2023-07-02T03:59:54.289Z,97469.91
2023-07-02T04:02:56.151Z,97471.72
2023-07-02T04:05:58.277Z,97479.78
2023-07-02T04:09:01.482Z,97481.34
2023-07-02T04:12:04.123Z,97478.53
2023-07-02T04:15:08.170Z,97478.53
2023-07-02T04:18:10.104Z,97472.31
2023-07-02T04:21:12.097Z,97484.03
2023-07-02T04:24:15.473Z,97484.19
2023-07-02T04:27:48.222Z,97486.88
2023-07-02T04:30:43.323Z,97500.56
2023-07-02T04:33:45.170Z,97479.06
2023-07-02T04:36:47.103Z,97498.31
2023-07-02T04:39:50.138Z,97499.31
2023-07-02T04:42:58.971Z,97486.63
2023-07-02T04:46:01.085Z,97491.16
2023-07-02T04:49:04.060Z,97488.94
2023-07-02T04:52:06.607Z,97502.50
2023-07-02T04:55:10.638Z,97499.81
2023-07-02T04:58:12.853Z,97507.41
2023-07-02T05:01:14.882Z,97525.09
2023-07-02T05:04:16.755Z,97524.97
2023-07-02T05:07:18.798Z,97531.72
2023-07-02T05:10:22.017Z,97541.75
2023-07-02T05:13:23.881Z,97542.47
2023-07-02T05:16:25.769Z,97550.53
2023-07-02T05:19:27.930Z,97546.31
2023-07-02T05:22:29.795Z,97557.19
2023-07-02T05:25:34.839Z,97548.28
2023-07-02T05:28:36.987Z,97556.00
2023-07-02T05:31:38.947Z,97558.47
2023-07-02T05:34:40.962Z,97558.31
2023-07-02T05:37:43.039Z,97561.47
2023-07-02T05:40:46.855Z,97570.28
2023-07-02T05:43:49.086Z,97572.13
2023-07-02T05:46:50.739Z,97573.72
2023-07-02T05:49:52.513Z,97582.88
2023-07-02T05:52:54.578Z,97565.97
2023-07-02T05:55:57.801Z,97575.63
2023-07-02T05:58:59.805Z,97573.81
2023-07-02T06:02:02.105Z,97582.94
2023-07-02T06:05:04.706Z,97592.75
2023-07-02T06:08:06.758Z,97585.75
2023-07-02T06:11:10.864Z,97586.38
2023-07-02T06:14:12.692Z,97598.44
2023-07-02T06:17:14.706Z,97601.00
2023-07-02T06:20:16.585Z,97608.44
2023-07-02T06:23:18.439Z,97611.03
2023-07-02T06:26:21.639Z,97613.84
2023-07-02T06:29:24.527Z,97601.81
2023-07-02T06:32:26.715Z,97613.06
2023-07-02T06:35:28.593Z,97613.56
2023-07-02T06:38:30.526Z,97608.56
2023-07-02T06:41:33.647Z,97631.53
2023-07-02T06:44:35.619Z,97619.81
2023-07-02T06:47:37.760Z,97625.09
2023-07-02T06:50:39.758Z,97627.78
2023-07-02T06:53:41.812Z,97628.50
2023-07-02T06:56:44.802Z,97628.47
2023-07-02T06:59:48.508Z,97640.22
2023-07-02T07:02:51.695Z,97640.44
2023-07-02T07:05:53.809Z,97632.63
2023-07-02T07:08:55.697Z,97639.34
2023-07-02T07:11:59.085Z,97644.16
2023-07-02T07:15:00.973Z,97642.59
2023-07-02T07:18:03.810Z,97638.19
2023-07-02T07:21:06.209Z,97645.88
2023-07-02T07:24:08.161Z,97636.53
2023-07-02T07:27:11.508Z,97644.47
2023-07-02T07:30:15.523Z,97646.25
2023-07-02T07:33:17.464Z,97646.50
2023-07-02T07:36:19.332Z,97647.66
2023-07-02T07:39:21.215Z,97655.09
2023-07-02T07:42:25.535Z,97646.44
2023-07-02T07:45:27.515Z,97646.13
2023-07-02T07:48:29.334Z,97662.50
2023-07-02T07:51:31.339Z,97647.78
2023-07-02T07:54:36.477Z,97654.81
2023-07-02T07:57:40.076Z,97658.41
2023-07-02T08:00:42.193Z,97654.88
2023-07-02T08:03:43.810Z,97654.50
2023-07-02T08:06:45.867Z,97664.91
2023-07-02T08:09:47.817Z,97670.69
2023-07-02T08:12:53.286Z,97676.53
2023-07-02T08:15:55.164Z,97674.25
2023-07-02T08:18:56.998Z,97672.22
2023-07-02T08:21:58.887Z,97671.91
2023-07-02T08:25:00.868Z,97688.03
2023-07-02T08:28:04.180Z,97700.97
2023-07-02T08:31:06.290Z,97698.34
2023-07-02T08:34:08.330Z,97704.56
2023-07-02T08:37:10.189Z,97704.75
2023-07-02T08:40:19.329Z,97710.13
2023-07-02T08:43:24.589Z,97710.09
2023-07-02T08:46:26.601Z,97710.63
2023-07-02T08:49:28.775Z,97711.56
2023-07-02T08:52:30.585Z,97707.56
2023-07-02T08:55:32.869Z,97710.94
2023-07-02T08:58:36.398Z,97705.91
2023-07-02T09:01:46.446Z,97714.06
2023-07-02T09:04:48.446Z,97719.69
2023-07-02T09:07:54.110Z,97725.84
2023-07-02T09:11:09.730Z,97729.34
2023-07-02T09:14:13.070Z,97722.97
2023-07-02T09:17:15.128Z,97723.88
2023-07-02T09:20:17.319Z,97727.44
2023-07-02T09:23:19.565Z,97741.50
2023-07-02T09:26:21.650Z,97727.94
2023-07-02T09:29:25.971Z,97729.19
2023-07-02T09:32:28.422Z,97726.84
2023-07-02T09:35:30.680Z,97725.66
2023-07-02T09:38:32.478Z,97730.72
2023-07-02T09:41:35.218Z,97737.75
2023-07-02T09:44:40.426Z,97744.69
2023-07-02T09:47:46.932Z,97742.72
2023-07-02T09:50:51.097Z,97755.63
2023-07-02T09:53:53.555Z,97739.91
2023-07-02T09:56:55.712Z,97725.28
2023-07-02T10:00:00.839Z,97747.06
2023-07-02T10:03:03.095Z,97741.69
2023-07-02T10:06:08.779Z,97752.25
2023-07-02T10:09:11.738Z,97748.47
2023-07-02T10:12:18.621Z,97737.72
2023-07-02T10:15:27.672Z,97753.72
2023-07-02T10:18:29.626Z,97754.91
2023-07-02T10:21:31.314Z,97767.03
2023-07-02T10:24:34.031Z,97768.50
2023-07-02T10:27:37.981Z,97784.63
2023-07-02T10:30:41.504Z,97777.47
2023-07-02T10:33:45.006Z,97764.84
2023-07-02T10:36:46.907Z,97759.94
2023-07-02T10:39:48.871Z,97781.72
2023-07-02T10:42:51.404Z,97767.09
2023-07-02T10:45:55.281Z,97772.25
2023-07-02T10:48:58.309Z,97769.66
2023-07-02T10:52:01.872Z,97779.09
2023-07-02T10:55:05.602Z,97778.00
2023-07-02T10:58:09.100Z,97775.88
2023-07-02T11:01:12.825Z,97774.25
2023-07-02T11:04:15.024Z,97779.69
2023-07-02T11:07:23.890Z,97783.81
2023-07-02T11:10:26.334Z,97778.47
2023-07-02T11:13:28.279Z,97786.19
2023-07-02T11:16:31.472Z,97786.59
2023-07-02T11:19:33.818Z,97783.09
2023-07-02T11:22:38.632Z,97797.22
2023-07-02T11:25:40.771Z,97796.59
2023-07-02T11:28:51.561Z,97790.41
2023-07-02T11:31:54.808Z,97782.38
2023-07-02T11:34:57.602Z,97781.22
2023-07-02T11:37:59.536Z,97773.44
2023-07-02T11:41:04.081Z,97787.84
2023-07-02T11:44:06.318Z,97806.94
2023-07-02T11:47:09.891Z,97785.50
2023-07-02T11:50:24.536Z,97777.53
2023-07-02T11:53:27.833Z,97782.94
2023-07-02T11:56:29.833Z,97783.91
2023-07-02T11:59:31.598Z,97776.97
2023-07-02T12:02:35.026Z,97779.25
2023-07-02T12:05:36.940Z,97777.59
2023-07-02T12:08:38.700Z,97786.94
2023-07-02T12:11:40.868Z,97795.59
2023-07-02T12:14:44.595Z,97784.19
2023-07-02T12:17:47.971Z,97782.53
2023-07-02T12:20:49.906Z,97789.63
2023-07-02T12:23:51.621Z,97789.81
2023-07-02T12:26:53.385Z,97800.88
2023-07-02T12:29:55.171Z,97793.22
2023-07-02T12:32:58.711Z,97805.00
2023-07-02T12:36:00.697Z,97798.03
2023-07-02T12:39:02.648Z,97795.06
2023-07-02T12:42:07.782Z,97795.88
2023-07-02T12:45:10.792Z,97820.03
2023-07-02T12:48:14.170Z,97818.53
2023-07-02T12:51:18.045Z,97814.25
2023-07-02T12:54:21.283Z,97800.59
2023-07-02T12:57:23.198Z,97802.28
2023-07-02T13:00:25.150Z,97815.94
2023-07-02T13:03:31.670Z,97818.66
2023-07-02T13:06:36.024Z,97819.38
2023-07-02T13:09:42.635Z,97822.91
2023-07-02T13:12:45.145Z,97821.94
2023-07-02T13:15:47.281Z,97824.81
2023-07-02T13:18:50.821Z,97827.19
2023-07-02T13:21:52.998Z,97830.06
2023-07-02T13:24:54.954Z,97822.78
2023-07-02T13:27:56.989Z,97826.19
2023-07-02T13:30:58.880Z,97833.34
2023-07-02T13:34:02.314Z,97828.75
2023-07-02T13:37:05.087Z,97828.59
2023-07-02T13:40:09.760Z,97830.41
2023-07-02T13:43:11.605Z,97835.78
2023-07-02T13:46:13.375Z,97832.56
2023-07-02T13:49:16.664Z,97837.44
2023-07-02T13:52:18.490Z,97831.31
2023-07-02T13:55:22.097Z,97846.22
2023-07-02T13:58:29.956Z,97819.69
2023-07-02T14:01:35.020Z,97838.16
2023-07-02T14:04:37.101Z,97827.19
2023-07-02T14:07:38.938Z,97831.59
2023-07-02T14:10:40.944Z,97837.75
2023-07-02T14:13:42.548Z,97843.88
2023-07-02T14:16:46.364Z,97852.38
2023-07-02T14:19:48.220Z,97832.75
2023-07-02T14:22:50.069Z,97832.47
2023-07-02T14:25:51.843Z,97841.31
2023-07-02T14:28:54.025Z,97835.59
2023-07-02T14:31:57.638Z,97841.16
2023-07-02T14:34:59.603Z,97836.81
2023-07-02T14:38:01.561Z,97844.84
2023-07-02T14:41:04.206Z,97837.09
2023-07-02T14:44:06.307Z,97839.19
2023-07-02T14:47:09.495Z,97844.66
2023-07-02T14:50:12.265Z,97837.28
2023-07-02T14:53:14.133Z,97845.78
2023-07-02T14:56:15.817Z,97841.16
2023-07-02T14:59:17.802Z,97833.91
2023-07-02T15:02:21.397Z,97833.84
2023-07-02T15:05:23.395Z,97832.75
2023-07-02T15:08:25.314Z,97834.47
2023-07-02T15:11:29.155Z,97839.31
2023-07-02T15:14:31.594Z,97832.41
2023-07-02T15:17:35.187Z,97825.22
2023-07-02T15:20:37.452Z,97835.66
2023-07-02T15:23:39.281Z,97830.91
2023-07-02T15:26:43.278Z,97830.22
2023-07-02T15:29:45.277Z,97837.03
2023-07-02T15:32:48.556Z,97825.50
2023-07-02T15:35:51.036Z,97827.59
2023-07-02T15:38:53.279Z,97824.50
2023-07-02T15:41:55.359Z,97824.69
2023-07-02T15:44:57.896Z,97829.09
2023-07-02T15:48:01.624Z,97826.63
2023-07-02T15:51:04.795Z,97820.31
2023-07-02T15:54:07.958Z,97817.66
2023-07-02T15:57:09.927Z,97830.78
2023-07-02T16:00:15.801Z,97826.50
2023-07-02T16:03:21.947Z,97834.16
2023-07-02T16:06:32.855Z,97842.72
2023-07-02T16:09:34.725Z,97840.59
2023-07-02T16:12:36.576Z,97837.97
2023-07-02T16:15:39.791Z,97844.69
2023-07-02T16:18:43.305Z,97829.09
2023-07-02T16:21:45.952Z,97831.91
2023-07-02T16:24:48.003Z,97833.63
2023-07-02T16:27:49.897Z,97830.22
2023-07-02T16:30:51.667Z,97825.06
2023-07-02T16:33:54.842Z,97830.72
2023-07-02T16:36:58.228Z,97826.03
2023-07-02T16:40:00.247Z,97820.06
2023-07-02T16:43:04.166Z,97835.03
2023-07-02T16:46:06.159Z,97826.66
2023-07-02T16:49:10.561Z,97825.53
2023-07-02T16:52:12.415Z,97826.75
2023-07-02T16:55:14.589Z,97829.75
2023-07-02T16:58:16.431Z,97821.34
2023-07-02T17:01:18.164Z,97829.19
2023-07-02T17:04:22.887Z,97824.78
2023-07-02T17:07:25.058Z,97835.72
2023-07-02T17:10:27.043Z,97834.16
2023-07-02T17:13:28.917Z,97833.31
2023-07-02T17:16:30.877Z,97826.06
2023-07-02T17:19:36.617Z,97835.59
2023-07-02T17:22:38.868Z,97829.47
2023-07-02T17:25:40.842Z,97836.28
2023-07-02T17:28:42.499Z,97839.41
2023-07-02T17:31:48.113Z,97824.34
2023-07-02T17:34:51.530Z,97825.31
2023-07-02T17:37:53.467Z,97837.28
2023-07-02T17:40:55.137Z,97836.56
2023-07-02T17:43:57.154Z,97832.41
2023-07-02T17:47:20.628Z,97833.09
2023-07-02T17:50:23.946Z,97831.53
2023-07-02T17:53:28.636Z,97838.91
2023-07-02T17:56:31.185Z,97836.31
2023-07-02T17:59:34.864Z,97829.63
2023-07-02T18:02:39.677Z,97829.13
2023-07-02T18:05:44.086Z,97837.22
2023-07-02T18:08:46.427Z,97822.81
2023-07-02T18:11:48.265Z,97834.97
2023-07-02T18:14:50.664Z,97835.53
2023-07-02T18:17:52.744Z,97834.66
2023-07-02T18:20:55.960Z,97826.41
2023-07-02T18:23:59.530Z,97835.63
2023-07-02T18:27:05.590Z,97841.75
2023-07-02T18:30:09.221Z,97834.75
2023-07-02T18:33:11.621Z,97840.88
2023-07-02T18:36:17.696Z,97837.13
2023-07-02T18:39:20.418Z,97842.81
2023-07-02T18:42:23.453Z,97837.41
2023-07-02T18:45:27.817Z,97842.06
2023-07-02T18:48:29.687Z,97834.53
2023-07-02T18:51:33.090Z,97839.91
2023-07-02T18:54:36.393Z,97840.28
2023-07-02T18:57:39.468Z,97844.81
2023-07-02T19:00:41.406Z,97844.25
2023-07-02T19:03:46.421Z,97839.00
2023-07-02T19:06:49.903Z,97848.34
2023-07-02T19:09:51.822Z,97842.34
2023-07-02T19:12:53.798Z,97845.69
2023-07-02T19:15:55.940Z,97844.25
2023-07-02T19:18:57.975Z,97838.97
2023-07-02T19:22:01.268Z,97840.47
2023-07-02T19:25:03.422Z,97841.56
2023-07-02T19:28:08.065Z,97842.34
2023-07-02T19:31:09.978Z,97833.81
2023-07-02T19:34:11.925Z,97848.41
2023-07-02T19:37:15.337Z,97842.78
2023-07-02T19:40:17.684Z,97847.56
2023-07-02T19:43:19.555Z,97852.75
2023-07-02T19:46:21.561Z,97850.53
2023-07-02T19:49:23.568Z,97859.75
2023-07-02T19:52:27.696Z,97853.00
2023-07-02T19:55:29.742Z,97858.91
2023-07-02T19:58:31.446Z,97855.97
2023-07-02T20:01:33.370Z,97860.88
2023-07-02T20:04:35.142Z,97864.44
2023-07-02T20:07:39.175Z,97858.41
2023-07-02T20:10:41.123Z,97862.47
2023-07-02T20:13:43.326Z,97866.38
2023-07-02T20:16:45.309Z,97868.75
2023-07-02T20:19:50.443Z,97864.34
2023-07-02T20:22:53.752Z,97866.53
2023-07-02T20:25:55.570Z,97872.28
2023-07-02T20:28:57.504Z,97870.09
2023-07-02T20:31:59.130Z,97864.34
2023-07-02T20:35:01.201Z,97861.16
2023-07-02T20:38:04.731Z,97860.69
2023-07-02T20:41:06.611Z,97865.06
2023-07-02T20:44:08.660Z,97865.66
2023-07-02T20:47:10.291Z,97865.41
2023-07-02T20:50:14.532Z,97856.72
2023-07-02T20:53:18.055Z,97865.31
2023-07-02T20:56:20.013Z,97854.03
2023-07-02T20:59:21.612Z,97861.00
2023-07-02T21:02:25.105Z,97859.81
2023-07-02T21:05:27.486Z,97859.94
2023-07-02T21:08:32.509Z,97858.09
2023-07-02T21:11:34.997Z,97869.91
2023-07-02T21:14:37.256Z,97858.31
2023-07-02T21:17:39.334Z,97861.97
2023-07-02T21:20:43.330Z,97855.03
2023-07-02T21:23:46.535Z,97858.19
2023-07-02T21:26:48.981Z,97857.31
2023-07-02T21:29:53.857Z,97859.78
2023-07-02T21:32:56.593Z,97853.78
2023-07-02T21:36:02.337Z,97859.28
2023-07-02T21:39:05.686Z,97857.69
2023-07-02T21:42:08.286Z,97853.19
2023-07-02T21:45:11.671Z,97850.09
2023-07-02T21:48:16.500Z,97853.78
2023-07-02T21:51:19.080Z,97858.56
2023-07-02T21:54:22.399Z,97865.03
2023-07-02T21:57:24.316Z,97865.38
2023-07-02T22:00:26.586Z,97863.44
2023-07-02T22:03:28.371Z,97849.25
2023-07-02T22:06:30.474Z,97857.44
2023-07-02T22:09:34.890Z,97841.91
2023-07-02T22:12:36.657Z,97853.16
2023-07-02T22:15:40.133Z,97852.56
2023-07-02T22:18:43.826Z,97847.41
2023-07-02T22:21:46.050Z,97849.72
2023-07-02T22:24:54.439Z,97849.72
2023-07-02T22:27:57.133Z,97854.25
2023-07-02T22:30:59.282Z,97846.03
2023-07-02T22:34:03.830Z,97845.78
2023-07-02T22:37:06.557Z,97830.25
2023-07-02T22:40:12.003Z,97831.22
2023-07-02T22:43:14.135Z,97825.63
2023-07-02T22:46:15.779Z,97823.41
2023-07-02T22:49:20.589Z,97820.72
2023-07-02T22:52:22.895Z,97815.59
2023-07-02T22:55:29.048Z,97819.13
2023-07-02T22:58:31.016Z,97822.69
2023-07-02T23:01:33.000Z,97841.50
2023-07-02T23:04:34.923Z,97820.72
2023-07-02T23:07:36.816Z,97831.47
2023-07-02T23:10:39.963Z,97825.25
2023-07-02T23:13:41.911Z,97820.34
2023-07-02T23:16:46.612Z,97821.59
2023-07-02T23:19:49.057Z,97814.06
2023-07-02T23:22:51.998Z,97809.53
2023-07-02T23:25:55.378Z,97808.56
2023-07-02T23:28:57.482Z,97804.25
2023-07-02T23:32:02.878Z,97801.34
2023-07-02T23:35:09.997Z,97799.97
2023-07-02T23:38:11.852Z,97788.72
2023-07-02T23:41:15.086Z,97787.03
2023-07-02T23:44:16.961Z,97782.97
2023-07-02T23:47:18.830Z,97782.59
2023-07-02T23:50:20.805Z,97782.81
2023-07-02T23:53:22.608Z,97785.63
2023-07-02T23:56:25.897Z,97791.69
2023-07-02T23:59:27.738Z,97788.28
